Aircraft
UPR1004 PR-AEB A330
SBCF
Tancredo Neves International Airport
SAEZ
Minister Pistarini International Airport
Pilot:: Jair
Aircraft:: A330-300 (GE)
Alternate: SUMU
Network: ivao
FLIGHT DETAILS
Distance: 1197nm Duration 03h 15m
Cruise Speed: Flight Level: 36000
Validation: Validated Type Charter
Flight Fuel
ZFW: 120072
Block Fuel/Initial FOB: 45355
Flight Fuel: 20775
Cargo
Passengers: 320
Cargo: 21000
ROUTE
ROUTE: abcf dct saez
REMARKS:
DATE
Date: 26-05-04
Departure Time: 1957
Cargo: 21000
FLIGHT DETAILS
Crashed: No
Validator Comments: Validado por Claudenir
Flight Rating: 99
LANDING ANALYSIS
Landing wind: 20º/4 kt
Landing heading: 356º
Landing VS:: -102 ft/min
Landing IAS:: 132 kt
Landing Force G: 1 G
Landing Bank: 1
Landing Pitch: -4
Landing Flaps: 100
Navigation Lights: ON
Landing Lights: ON
Beacon Lights: ON
Strobe Lights: ON
viserfly

ALTITUDE CHART

viserfly

MAIN EVENTS

DATE EVENT IAS ALTITUDE
2026-05-04 19:52:27 FLYacars version 1.3.5 0 2757
2026-05-04 19:52:27 Aircraft boarding in progress 0 2757
2026-05-04 19:52:27 FLAPS 25% 0 2757
2026-05-04 19:52:27 Navigation Lights ON 0 2757
2026-05-04 19:52:27 Beacon Lights ON 0 2757
2026-05-04 19:52:28 Strobe Lights ON 0 2757
2026-05-04 19:52:28 Landing Lights ON 0 2757
2026-05-04 19:52:28 Taxi Lights ON 0 2757
2026-05-04 19:52:28 Starting Engine 2 0 2757
2026-05-04 19:52:28 Starting Engine 1 0 2757
2026-05-04 19:53:16 Aircraft taxiing to runway 1 2757
2026-05-04 19:57:48 Detected Take-off roll, HDG 167, IAS 148kt, GS 149kt, G-force 1.0g, Pitch -5.0deg, Bank 0.1deg, Wind 142/11kt, Temp 23°C 148 2759
2026-05-04 19:57:48 Airborne 148 2759
2026-05-04 19:57:48 Incorrect altimeter settings on takeoff 148 2759
2026-05-04 19:57:55 Taxi Lights OFF 161 2931
2026-05-04 19:58:05 Gear UP, IAS 176kt, GS 172kt, ALT 673ft AGL 176 3414
2026-05-04 19:58:46 FLAPS 0% 188kt, ALT 5172ft 188 5172
2026-05-04 20:00:53 Landing lights ON above 10000fts 257 11003
2026-05-04 20:15:27 Aircraft on Top Of Climb at 37118ft, IAS 264kt, GS 414kt, HDG 245deg, TAT -49deg, WIND 256/63kt 264 37118
2026-05-04 22:34:15 Aircraft on Top Of Descent at 35499ft, IAS 263kt, GS 386kt, HDG 239deg, TAT -53deg, WIND 247/69kt 263 35499
2026-05-04 23:04:35 FLAPS 25% 163kt, ALT 6365ft 163 6365
2026-05-04 23:06:13 FLAPS 50% 137kt, ALT 5306ft 137 5306
2026-05-04 23:07:18 FLAPS 75% 134kt, ALT 4375ft 134 4375
2026-05-04 23:08:33 Gear DOWN, IAS 147kt, GS 152kt, ALT 4870ft AGL 147 4947
2026-05-04 23:08:39 Taxi Lights ON 146 4918
2026-05-04 23:12:23 FLAPS 100% 153kt, ALT 497ft 153 497
2026-05-04 23:13:00 Landed at destination with a landing rate of -102fpm, G-force 1.0g, Pitch -3.8deg, Bank 0.7deg, HDG 356deg, IAS 132kt, GS 130kt, Wind 020/04kt, Temp 16°C 132 88
2026-05-04 23:13:00 Incorrect altimeter settings on landing 132 88
2026-05-04 23:13:13 Aircraft taxiing to apron 28 83
2026-05-04 23:18:40 Beacon Lights OFF 0 79
2026-05-04 23:18:41 Strobe Lights OFF 0 79
2026-05-04 23:20:18 Engine 2 shutdown 0 79
2026-05-04 23:20:18 Engine 1 shutdown 0 79
2026-05-04 23:21:16 Aircraft at gate/stand, ground services are moving into position, disembarkation has begun. Remaining FOB 24580kg FLYacars v1.3.5 0 79
viserfly

ACARS DATA

DATE IAS GS ALTITUDE FUEL CONSUMED OAT FLIGHT STATUS
2026-05-04 19:52:57 2 3 2757 14 24 PUSHBACK
2026-05-04 19:53:27 0 6 2757 29 23 TAXI TO RUNWAY
2026-05-04 19:53:57 3 11 2757 45 23 TAXI TO RUNWAY
2026-05-04 19:54:27 5 14 2756 60 23 TAXI TO RUNWAY
2026-05-04 19:54:57 2 14 2756 75 23 TAXI TO RUNWAY
2026-05-04 19:55:27 1 10 2756 90 23 TAXI TO RUNWAY
2026-05-04 19:55:57 5 8 2757 105 23 TAXI TO RUNWAY
2026-05-04 19:56:27 3 3 2757 119 23 TAXI TO RUNWAY
2026-05-04 19:56:57 12 8 2756 135 23 TAXI TO RUNWAY
2026-05-04 19:57:27 61 55 2755 186 23 TAKEOFF
2026-05-04 19:57:57 164 165 3010 324 23 TAKEOFF
2026-05-04 19:58:27 170 175 4809 459 16 INITIAL CLIMB
2026-05-04 19:58:57 209 233 5317 570 15 CLIMB
2026-05-04 19:59:27 245 280 6117 683 14 CLIMB
2026-05-04 19:59:57 251 290 7831 797 10 CLIMB
2026-05-04 20:00:27 248 289 9820 906 7 CLIMB
2026-05-04 20:00:57 263 315 11097 1019 5 CLIMB
2026-05-04 20:01:27 286 345 12023 1128 5 CLIMB
2026-05-04 20:01:57 288 353 13486 1237 3 CLIMB
2026-05-04 20:02:27 288 358 14915 1339 1 CLIMB
2026-05-04 20:02:57 288 364 16246 1437 0 CLIMB
2026-05-04 20:03:27 288 370 17524 1538 -3 CLIMB
2026-05-04 20:03:57 288 375 18720 1634 -6 CLIMB
2026-05-04 20:04:27 289 380 19901 1729 -9 CLIMB
2026-05-04 20:04:57 289 383 21053 1823 -11 CLIMB
2026-05-04 20:05:27 288 385 22192 1915 -13 CLIMB
2026-05-04 20:05:57 288 389 23260 2007 -16 CLIMB
2026-05-04 20:06:27 288 393 24253 2096 -18 CLIMB
2026-05-04 20:06:57 289 395 25222 2180 -20 CLIMB
2026-05-04 20:07:27 289 398 26168 2266 -23 CLIMB
2026-05-04 20:07:56 289 400 27071 2352 -25 CLIMB
2026-05-04 20:08:26 288 403 27909 2435 -27 CLIMB
2026-05-04 20:08:56 289 405 28718 2516 -29 CLIMB
2026-05-04 20:09:26 288 407 29512 2595 -31 CLIMB
2026-05-04 20:09:56 289 409 30213 2674 -33 CLIMB
2026-05-04 20:10:26 288 411 30949 2751 -35 CLIMB
2026-05-04 20:10:56 288 415 31556 2826 -36 CLIMB
2026-05-04 20:11:26 289 419 32113 2900 -38 CLIMB
2026-05-04 20:11:56 289 424 32619 2975 -39 CLIMB
2026-05-04 20:12:26 288 426 33197 3048 -40 CLIMB
2026-05-04 20:12:56 284 426 33879 3120 -42 CLIMB
2026-05-04 20:13:26 280 424 34547 3190 -43 CLIMB
2026-05-04 20:13:56 276 423 35198 3256 -45 CLIMB
2026-05-04 20:14:26 272 420 35886 3322 -46 CLIMB
2026-05-04 20:14:56 268 416 36565 3388 -48 CLIMB
2026-05-04 20:15:26 264 415 37113 3450 -49 CLIMB
2026-05-04 20:15:56 257 403 37152 3491 -49 ENROUTE
2026-05-04 20:16:26 256 401 37151 3539 -49 ENROUTE
2026-05-04 20:16:56 256 402 37150 3590 -49 ENROUTE
2026-05-04 20:17:26 257 402 37135 3640 -49 ENROUTE
2026-05-04 20:17:56 256 401 37132 3688 -49 ENROUTE
2026-05-04 20:18:26 256 402 37133 3737 -49 ENROUTE
2026-05-04 20:18:56 256 402 37133 3786 -49 ENROUTE
2026-05-04 20:19:26 256 402 37134 3836 -49 ENROUTE
2026-05-04 20:19:56 256 402 37132 3885 -49 ENROUTE
2026-05-04 20:20:26 256 401 37127 3935 -49 ENROUTE
2026-05-04 20:20:56 257 401 37108 3984 -49 ENROUTE
2026-05-04 20:21:26 256 401 37099 4033 -49 ENROUTE
2026-05-04 20:21:56 256 401 37098 4083 -49 ENROUTE
2026-05-04 20:22:26 257 401 37099 4131 -49 ENROUTE
2026-05-04 20:22:56 257 400 37097 4180 -49 ENROUTE
2026-05-04 20:23:26 256 400 37094 4230 -49 ENROUTE
2026-05-04 20:23:56 256 400 37094 4280 -49 ENROUTE
2026-05-04 20:24:26 256 400 37092 4330 -49 ENROUTE
2026-05-04 20:24:56 256 400 37086 4380 -49 ENROUTE
2026-05-04 20:25:26 257 399 37083 4429 -50 ENROUTE
2026-05-04 20:25:56 256 398 37084 4478 -50 ENROUTE
2026-05-04 20:26:26 256 399 37083 4527 -50 ENROUTE
2026-05-04 20:26:56 256 398 37081 4575 -50 ENROUTE
2026-05-04 20:27:26 256 398 37086 4625 -50 ENROUTE
2026-05-04 20:27:56 256 398 37084 4675 -50 ENROUTE
2026-05-04 20:28:26 256 398 37066 4724 -50 ENROUTE
2026-05-04 20:28:56 257 399 37063 4775 -50 ENROUTE
2026-05-04 20:29:26 257 399 37064 4824 -50 ENROUTE
2026-05-04 20:29:56 256 398 37064 4872 -50 ENROUTE
2026-05-04 20:30:26 256 398 37069 4922 -50 ENROUTE
2026-05-04 20:30:56 257 399 37072 4972 -50 ENROUTE
2026-05-04 20:31:26 256 399 37071 5020 -50 ENROUTE
2026-05-04 20:31:56 256 399 37061 5070 -50 ENROUTE
2026-05-04 20:32:26 256 400 37039 5119 -50 ENROUTE
2026-05-04 20:32:56 256 400 37040 5169 -50 ENROUTE
2026-05-04 20:33:26 257 399 37039 5217 -50 ENROUTE
2026-05-04 20:33:56 256 398 37036 5264 -50 ENROUTE
2026-05-04 20:34:26 256 398 37036 5314 -50 ENROUTE
2026-05-04 20:34:56 256 399 37037 5363 -50 ENROUTE
2026-05-04 20:35:26 256 398 37035 5413 -50 ENROUTE
2026-05-04 20:35:56 257 398 37025 5461 -50 ENROUTE
2026-05-04 20:36:26 256 398 37020 5511 -50 ENROUTE
2026-05-04 20:36:56 256 397 37020 5560 -50 ENROUTE
2026-05-04 20:37:26 256 398 37022 5610 -50 ENROUTE
2026-05-04 20:37:56 257 398 37022 5661 -50 ENROUTE
2026-05-04 20:38:26 256 397 37021 5708 -50 ENROUTE
2026-05-04 20:38:56 256 397 37020 5757 -50 ENROUTE
2026-05-04 20:39:26 256 398 37019 5808 -50 ENROUTE
2026-05-04 20:39:56 256 398 36997 5857 -50 ENROUTE
2026-05-04 20:40:26 256 399 36998 5907 -50 ENROUTE
2026-05-04 20:40:56 256 399 36995 5956 -50 ENROUTE
2026-05-04 20:41:26 257 399 36994 6006 -51 ENROUTE
2026-05-04 20:41:56 257 398 36996 6055 -51 ENROUTE
2026-05-04 20:42:26 256 398 36992 6102 -51 ENROUTE
2026-05-04 20:42:56 256 398 36993 6151 -51 ENROUTE
2026-05-04 20:43:26 256 398 36981 6202 -51 ENROUTE
2026-05-04 20:43:56 256 399 36976 6253 -51 ENROUTE
2026-05-04 20:44:26 257 399 36974 6302 -51 ENROUTE
2026-05-04 20:44:56 256 398 36974 6350 -51 ENROUTE
2026-05-04 20:45:26 256 398 36974 6400 -51 ENROUTE
2026-05-04 20:45:56 256 398 36972 6450 -51 ENROUTE
2026-05-04 20:46:26 256 399 36973 6501 -51 ENROUTE
2026-05-04 20:46:56 257 398 36976 6549 -51 ENROUTE
2026-05-04 20:47:26 255 398 36951 6598 -51 ENROUTE
2026-05-04 20:47:56 256 400 36948 6650 -51 ENROUTE
2026-05-04 20:48:26 256 400 36951 6700 -51 ENROUTE
2026-05-04 20:48:56 256 400 36950 6749 -51 ENROUTE
2026-05-04 20:49:26 256 400 36952 6798 -51 ENROUTE
2026-05-04 20:49:56 256 400 36953 6848 -51 ENROUTE
2026-05-04 20:50:26 256 400 36948 6896 -51 ENROUTE
2026-05-04 20:50:56 257 400 36949 6946 -51 ENROUTE
2026-05-04 20:51:26 256 400 36950 6993 -51 ENROUTE
2026-05-04 20:51:56 256 400 36950 7044 -51 ENROUTE
2026-05-04 20:52:26 257 400 36950 7094 -51 ENROUTE
2026-05-04 20:52:56 256 400 36950 7143 -51 ENROUTE
2026-05-04 20:53:26 256 400 36952 7193 -51 ENROUTE
2026-05-04 20:53:56 256 400 36952 7241 -51 ENROUTE
2026-05-04 20:54:26 256 400 36951 7290 -51 ENROUTE
2026-05-04 20:54:56 255 400 36938 7340 -51 ENROUTE
2026-05-04 20:55:26 256 402 36941 7391 -51 ENROUTE
2026-05-04 20:55:56 256 402 36943 7440 -51 ENROUTE
2026-05-04 20:56:26 256 402 36942 7490 -51 ENROUTE
2026-05-04 20:56:56 256 402 36942 7540 -51 ENROUTE
2026-05-04 20:57:26 256 402 36941 7589 -51 ENROUTE
2026-05-04 20:57:56 256 402 36942 7640 -51 ENROUTE
2026-05-04 20:58:26 257 402 36936 7687 -51 ENROUTE
2026-05-04 20:58:56 255 403 36929 7738 -51 ENROUTE
2026-05-04 20:59:26 256 405 36928 7789 -51 ENROUTE
2026-05-04 20:59:56 257 405 36928 7839 -51 ENROUTE
2026-05-04 21:00:26 256 405 36929 7888 -51 ENROUTE
2026-05-04 21:00:56 257 404 36929 7936 -52 ENROUTE
2026-05-04 21:01:26 256 404 36927 7985 -52 ENROUTE
2026-05-04 21:01:56 256 404 36928 8034 -52 ENROUTE
2026-05-04 21:02:26 255 404 36922 8083 -52 ENROUTE
2026-05-04 21:02:56 256 405 36912 8134 -52 ENROUTE
2026-05-04 21:03:26 257 406 36919 8185 -52 ENROUTE
2026-05-04 21:03:56 257 404 36912 8233 -52 ENROUTE
2026-05-04 21:04:26 256 404 36910 8281 -52 ENROUTE
2026-05-04 21:04:56 256 404 36910 8331 -52 ENROUTE
2026-05-04 21:05:26 256 404 36911 8380 -52 ENROUTE
2026-05-04 21:05:56 256 404 36912 8428 -52 ENROUTE
2026-05-04 21:06:26 255 404 36892 8478 -52 ENROUTE
2026-05-04 21:06:56 256 406 36883 8530 -52 ENROUTE
2026-05-04 21:07:26 257 406 36882 8580 -52 ENROUTE
2026-05-04 21:07:56 256 406 36882 8629 -52 ENROUTE
2026-05-04 21:08:26 256 406 36878 8678 -52 ENROUTE
2026-05-04 21:08:56 256 406 36881 8729 -52 ENROUTE
2026-05-04 21:09:26 256 405 36882 8778 -52 ENROUTE
2026-05-04 21:09:56 256 405 36881 8826 -52 ENROUTE
2026-05-04 21:10:26 256 405 36864 8875 -52 ENROUTE
2026-05-04 21:10:56 256 405 36863 8925 -52 ENROUTE
2026-05-04 21:11:26 257 405 36862 8974 -52 ENROUTE
2026-05-04 21:11:56 256 405 36864 9023 -52 ENROUTE
2026-05-04 21:12:26 256 405 36867 9072 -52 ENROUTE
2026-05-04 21:12:56 256 405 36867 9121 -52 ENROUTE
2026-05-04 21:13:26 256 405 36866 9170 -52 ENROUTE
2026-05-04 21:13:56 257 405 36863 9219 -53 ENROUTE
2026-05-04 21:14:26 256 405 36835 9266 -53 ENROUTE
2026-05-04 21:14:56 256 405 36834 9316 -53 ENROUTE
2026-05-04 21:15:26 256 405 36839 9365 -53 ENROUTE
2026-05-04 21:15:56 256 405 36839 9415 -53 ENROUTE
2026-05-04 21:16:26 256 405 36838 9464 -53 ENROUTE
2026-05-04 21:16:56 256 405 36838 9513 -53 ENROUTE
2026-05-04 21:17:26 257 405 36839 9561 -52 ENROUTE
2026-05-04 21:17:56 258 404 36833 9610 -52 ENROUTE
2026-05-04 21:18:26 256 402 36826 9657 -52 ENROUTE
2026-05-04 21:18:56 256 401 36828 9705 -52 ENROUTE
2026-05-04 21:19:26 256 401 36827 9754 -52 ENROUTE
2026-05-04 21:19:56 256 402 36825 9803 -52 ENROUTE
2026-05-04 21:20:26 257 401 36828 9853 -52 ENROUTE
2026-05-04 21:20:56 256 400 36828 9901 -52 ENROUTE
2026-05-04 21:21:26 256 400 36828 9949 -52 ENROUTE
2026-05-04 21:21:56 257 400 36825 9998 -52 ENROUTE
2026-05-04 21:22:26 256 399 36823 10047 -52 ENROUTE
2026-05-04 21:22:56 256 399 36824 10096 -52 ENROUTE
2026-05-04 21:23:26 257 399 36825 10145 -52 ENROUTE
2026-05-04 21:23:56 256 399 36827 10194 -52 ENROUTE
2026-05-04 21:24:26 256 400 36824 10244 -52 ENROUTE
2026-05-04 21:24:56 256 399 36826 10292 -52 ENROUTE
2026-05-04 21:25:26 256 399 36826 10341 -52 ENROUTE
2026-05-04 21:25:56 256 400 36822 10389 -52 ENROUTE
2026-05-04 21:26:26 256 401 36823 10440 -52 ENROUTE
2026-05-04 21:26:56 257 401 36823 10489 -52 ENROUTE
2026-05-04 21:27:26 256 401 36823 10539 -52 ENROUTE
2026-05-04 21:27:56 256 401 36825 10589 -52 ENROUTE
2026-05-04 21:28:26 256 401 36823 10636 -52 ENROUTE
2026-05-04 21:28:56 256 401 36826 10685 -52 ENROUTE
2026-05-04 21:29:26 256 401 36826 10735 -52 ENROUTE
2026-05-04 21:29:56 256 401 36825 10784 -52 ENROUTE
2026-05-04 21:30:26 256 401 36826 10832 -52 ENROUTE
2026-05-04 21:30:56 256 401 36827 10882 -52 ENROUTE
2026-05-04 21:31:26 256 401 36825 10931 -52 ENROUTE
2026-05-04 21:31:56 256 401 36825 10981 -52 ENROUTE
2026-05-04 21:32:26 257 402 36826 11030 -52 ENROUTE
2026-05-04 21:32:56 256 401 36827 11078 -52 ENROUTE
2026-05-04 21:33:26 256 401 36829 11127 -53 ENROUTE
2026-05-04 21:33:56 257 401 36822 11176 -53 ENROUTE
2026-05-04 21:34:26 256 400 36824 11225 -53 ENROUTE
2026-05-04 21:34:56 256 400 36824 11273 -53 ENROUTE
2026-05-04 21:35:26 256 400 36823 11323 -53 ENROUTE
2026-05-04 21:35:56 256 400 36823 11372 -53 ENROUTE
2026-05-04 21:36:26 256 400 36822 11422 -53 ENROUTE
2026-05-04 21:36:56 256 400 36823 11470 -53 ENROUTE
2026-05-04 21:37:26 256 401 36824 11518 -53 ENROUTE
2026-05-04 21:37:56 257 400 36820 11567 -53 ENROUTE
2026-05-04 21:38:26 256 399 36821 11615 -53 ENROUTE
2026-05-04 21:38:56 256 399 36821 11665 -53 ENROUTE
2026-05-04 21:39:26 256 399 36821 11713 -53 ENROUTE
2026-05-04 21:39:56 256 399 36821 11762 -53 ENROUTE
2026-05-04 21:40:26 257 399 36820 11812 -53 ENROUTE
2026-05-04 21:40:56 256 398 36819 11859 -53 ENROUTE
2026-05-04 21:41:26 256 398 36819 11907 -53 ENROUTE
2026-05-04 21:41:56 257 397 36801 11955 -53 ENROUTE
2026-05-04 21:42:26 256 396 36800 12003 -53 ENROUTE
2026-05-04 21:42:56 256 396 36799 12052 -53 ENROUTE
2026-05-04 21:43:26 256 397 36807 12102 -53 ENROUTE
2026-05-04 21:43:56 256 398 36809 12152 -53 ENROUTE
2026-05-04 21:44:26 256 398 36808 12201 -53 ENROUTE
2026-05-04 21:44:56 256 398 36806 12250 -53 ENROUTE
2026-05-04 21:45:26 256 398 36810 12299 -53 ENROUTE
2026-05-04 21:45:56 257 397 36779 12347 -53 ENROUTE
2026-05-04 21:46:26 257 396 36783 12397 -53 ENROUTE
2026-05-04 21:46:56 256 395 36776 12445 -53 ENROUTE
2026-05-04 21:47:26 257 395 36780 12495 -53 ENROUTE
2026-05-04 21:47:56 256 395 36778 12544 -53 ENROUTE
2026-05-04 21:48:26 256 395 36779 12591 -53 ENROUTE
2026-05-04 21:48:56 257 395 36778 12640 -53 ENROUTE
2026-05-04 21:49:26 256 395 36781 12689 -53 ENROUTE
2026-05-04 21:49:56 258 393 36750 12737 -54 ENROUTE
2026-05-04 21:50:26 257 390 36749 12783 -54 ENROUTE
2026-05-04 21:50:56 256 390 36749 12831 -54 ENROUTE
2026-05-04 21:51:26 256 390 36749 12881 -54 ENROUTE
2026-05-04 21:51:56 257 391 36749 12931 -54 ENROUTE
2026-05-04 21:52:26 257 390 36747 12977 -54 ENROUTE
2026-05-04 21:52:56 256 389 36744 13026 -54 ENROUTE
2026-05-04 21:53:26 257 389 36745 13075 -54 ENROUTE
2026-05-04 21:53:56 257 389 36731 13123 -54 ENROUTE
2026-05-04 21:54:26 258 387 36735 13169 -54 ENROUTE
2026-05-04 21:54:56 256 387 36730 13216 -54 ENROUTE
2026-05-04 21:55:26 256 388 36728 13267 -54 ENROUTE
2026-05-04 21:55:56 256 388 36728 13317 -54 ENROUTE
2026-05-04 21:56:26 256 388 36727 13364 -54 ENROUTE
2026-05-04 21:56:56 256 388 36727 13413 -54 ENROUTE
2026-05-04 21:57:26 256 388 36729 13462 -54 ENROUTE
2026-05-04 21:57:56 257 388 36725 13511 -54 ENROUTE
2026-05-04 21:58:26 257 386 36690 13558 -54 ENROUTE
2026-05-04 21:58:56 256 386 36689 13606 -54 ENROUTE
2026-05-04 21:59:26 256 386 36689 13654 -54 ENROUTE
2026-05-04 21:59:56 256 386 36688 13702 -54 ENROUTE
2026-05-04 22:00:26 256 386 36692 13752 -54 ENROUTE
2026-05-04 22:00:56 256 385 36693 13801 -54 ENROUTE
2026-05-04 22:01:26 256 386 36687 13849 -54 ENROUTE
2026-05-04 22:01:56 256 386 36687 13898 -54 ENROUTE
2026-05-04 22:02:26 257 385 36668 13946 -54 ENROUTE
2026-05-04 22:02:56 256 384 36667 13995 -54 ENROUTE
2026-05-04 22:03:26 256 384 36668 14042 -54 ENROUTE
2026-05-04 22:03:56 256 384 36667 14090 -54 ENROUTE
2026-05-04 22:04:26 256 384 36667 14140 -54 ENROUTE
2026-05-04 22:04:56 256 384 36667 14188 -54 ENROUTE
2026-05-04 22:05:26 256 384 36668 14236 -54 ENROUTE
2026-05-04 22:05:56 256 384 36669 14285 -54 ENROUTE
2026-05-04 22:06:26 257 385 36661 14335 -54 ENROUTE
2026-05-04 22:06:56 257 383 36652 14382 -54 ENROUTE
2026-05-04 22:07:26 256 382 36654 14430 -54 ENROUTE
2026-05-04 22:07:56 256 383 36653 14477 -54 ENROUTE
2026-05-04 22:08:26 256 383 36653 14527 -54 ENROUTE
2026-05-04 22:08:56 256 382 36653 14575 -54 ENROUTE
2026-05-04 22:09:26 256 383 36653 14624 -54 ENROUTE
2026-05-04 22:09:56 256 383 36653 14673 -54 ENROUTE
2026-05-04 22:10:26 256 383 36652 14721 -55 ENROUTE
2026-05-04 22:10:56 256 383 36652 14771 -55 ENROUTE
2026-05-04 22:11:26 256 383 36652 14820 -55 ENROUTE
2026-05-04 22:11:56 256 383 36652 14866 -55 ENROUTE
2026-05-04 22:12:26 256 383 36651 14916 -55 ENROUTE
2026-05-04 22:12:56 256 383 36652 14965 -55 ENROUTE
2026-05-04 22:13:26 256 383 36651 15014 -55 ENROUTE
2026-05-04 22:13:56 256 384 36651 15063 -55 ENROUTE
2026-05-04 22:14:26 256 383 36651 15111 -55 ENROUTE
2026-05-04 22:14:56 257 383 36633 15159 -55 ENROUTE
2026-05-04 22:15:26 256 383 36629 15207 -55 ENROUTE
2026-05-04 22:15:56 256 383 36627 15254 -55 ENROUTE
2026-05-04 22:16:26 256 383 36628 15304 -55 ENROUTE
2026-05-04 22:16:56 256 383 36628 15353 -55 ENROUTE
2026-05-04 22:17:26 256 384 36626 15402 -55 ENROUTE
2026-05-04 22:17:56 256 384 36626 15452 -55 ENROUTE
2026-05-04 22:18:26 256 384 36625 15500 -55 ENROUTE
2026-05-04 22:18:56 256 383 36626 15548 -55 ENROUTE
2026-05-04 22:19:26 256 383 36606 15597 -55 ENROUTE
2026-05-04 22:19:56 256 383 36606 15645 -55 ENROUTE
2026-05-04 22:20:26 256 384 36606 15694 -55 ENROUTE
2026-05-04 22:20:56 256 384 36607 15742 -55 ENROUTE
2026-05-04 22:21:26 256 383 36606 15791 -55 ENROUTE
2026-05-04 22:21:56 256 383 36606 15840 -55 ENROUTE
2026-05-04 22:22:26 256 384 36606 15888 -55 ENROUTE
2026-05-04 22:23:50 257 383 36579 16024 -55 ENROUTE
2026-05-04 22:24:20 256 383 36578 16071 -55 ENROUTE
2026-05-04 22:24:26 256 383 36578 16081 -55 ENROUTE
2026-05-04 22:24:56 256 383 36578 16129 -55 ENROUTE
2026-05-04 22:25:26 256 383 36578 16178 -55 ENROUTE
2026-05-04 22:25:56 256 383 36575 16227 -55 ENROUTE
2026-05-04 22:26:26 256 383 36575 16277 -55 ENROUTE
2026-05-04 22:26:56 256 383 36575 16324 -55 ENROUTE
2026-05-04 22:27:26 256 383 36575 16372 -55 ENROUTE
2026-05-04 22:27:56 257 383 36563 16421 -55 ENROUTE
2026-05-04 22:28:26 256 382 36563 16469 -55 ENROUTE
2026-05-04 22:28:56 256 382 36562 16517 -55 ENROUTE
2026-05-04 22:29:26 256 382 36562 16566 -55 ENROUTE
2026-05-04 22:29:56 256 382 36562 16615 -55 ENROUTE
2026-05-04 22:30:26 256 382 36562 16664 -55 ENROUTE
2026-05-04 22:30:56 256 382 36561 16713 -55 ENROUTE
2026-05-04 22:31:26 256 382 36560 16761 -55 ENROUTE
2026-05-04 22:31:56 257 383 36546 16809 -55 ENROUTE
2026-05-04 22:32:26 256 382 36538 16858 -55 ENROUTE
2026-05-04 22:32:56 256 382 36538 16905 -55 ENROUTE
2026-05-04 22:33:26 257 382 36463 16953 -55 DESCENT
2026-05-04 22:33:56 259 381 35876 16990 -53 DESCENT
2026-05-04 22:34:26 265 388 35270 17035 -52 DESCENT
2026-05-04 22:35:03 270 391 34530 17086 -50 DESCENT
2026-05-04 22:35:26 272 392 34063 17122 -49 DESCENT
2026-05-04 22:35:56 276 395 33460 17169 -47 DESCENT
2026-05-04 22:36:26 280 398 32857 17216 -46 DESCENT
2026-05-04 22:36:56 284 401 32254 17264 -44 DESCENT
2026-05-04 22:37:26 286 402 31654 17313 -43 DESCENT
2026-05-04 22:38:03 285 400 30920 17373 -41 DESCENT
2026-05-04 22:38:26 286 399 30456 17411 -39 DESCENT
2026-05-04 22:38:56 286 396 29857 17459 -38 DESCENT
2026-05-04 22:39:26 286 392 29260 17507 -36 DESCENT
2026-05-04 22:40:33 286 384 27924 17617 -33 DESCENT
2026-05-04 22:41:05 286 381 27290 17670 -31 DESCENT
2026-05-04 22:41:26 286 379 26865 17706 -30 DESCENT
2026-05-04 22:41:56 286 376 26266 17758 -28 DESCENT
2026-05-04 22:42:26 286 373 25667 17810 -27 DESCENT
2026-05-04 22:43:24 286 368 24514 17909 -23 DESCENT
2026-05-04 22:43:26 286 367 24471 17914 -23 DESCENT
2026-05-04 22:43:56 285 365 23871 17967 -22 DESCENT
2026-05-04 22:44:26 286 363 23271 18020 -20 DESCENT
2026-05-04 22:44:56 286 359 22671 18071 -19 DESCENT
2026-05-04 22:45:26 286 356 22073 18124 -18 DESCENT
2026-05-04 22:46:08 286 353 21234 18198 -16 DESCENT
2026-05-04 22:46:26 286 351 20876 18230 -15 DESCENT
2026-05-04 22:46:56 286 349 20277 18282 -14 DESCENT
2026-05-04 22:47:26 286 346 19680 18334 -13 DESCENT
2026-05-04 22:47:56 286 344 19080 18383 -11 DESCENT
2026-05-04 22:48:26 285 342 18480 18435 -10 DESCENT
2026-05-04 22:48:56 285 340 17882 18487 -9 DESCENT
2026-05-04 22:49:28 286 338 17237 18542 -8 DESCENT
2026-05-04 22:49:56 285 335 16684 18590 -7 DESCENT
2026-05-04 22:50:26 285 333 16086 18643 -6 DESCENT
2026-05-04 22:50:56 286 330 15486 18694 -5 DESCENT
2026-05-04 22:51:26 285 327 14888 18746 -3 DESCENT
2026-05-04 22:51:56 285 326 14288 18797 -2 DESCENT
2026-05-04 22:52:26 285 324 13691 18850 -1 DESCENT
2026-05-04 22:52:56 285 323 13092 18905 0 DESCENT
2026-05-04 22:53:26 285 321 12495 18958 1 DESCENT
2026-05-04 22:53:56 285 320 11893 19011 2 DESCENT
2026-05-04 22:54:26 286 318 11294 19064 3 DESCENT
2026-05-04 22:54:56 285 316 10696 19115 5 DESCENT
2026-05-04 22:55:26 285 315 10137 19169 6 DESCENT
2026-05-04 22:55:56 277 307 10054 19232 6 ENROUTE
2026-05-04 22:56:26 271 299 10058 19289 6 ENROUTE
2026-05-04 22:56:56 271 299 10059 19353 6 ENROUTE
2026-05-04 22:57:26 272 301 10058 19416 6 ENROUTE
2026-05-04 22:57:56 257 283 9836 19449 7 DESCENT
2026-05-04 22:58:26 249 273 9600 19486 7 DESCENT
2026-05-04 22:58:56 250 273 9351 19540 7 DESCENT
2026-05-04 22:59:26 250 272 9101 19593 7 DESCENT
2026-05-04 22:59:56 249 273 8852 19648 7 DESCENT
2026-05-04 23:00:26 250 273 8603 19701 8 DESCENT
2026-05-04 23:00:56 242 263 8355 19740 8 DESCENT
2026-05-04 23:01:26 223 242 8119 19750 8 DESCENT
2026-05-04 23:01:56 209 224 7879 19760 9 DESCENT
2026-05-04 23:02:26 196 210 7634 19771 9 DESCENT
2026-05-04 23:02:56 185 198 7385 19781 10 DESCENT
2026-05-04 23:03:26 175 186 7135 19791 10 DESCENT
2026-05-04 23:03:56 166 177 6863 19801 10 DESCENT
2026-05-04 23:04:26 163 173 6484 19811 11 DESCENT
2026-05-04 23:04:56 154 162 6201 19822 11 DESCENT
2026-05-04 23:05:26 142 148 5940 19833 12 DESCENT
2026-05-04 23:05:56 137 143 5556 19844 12 DESCENT
2026-05-04 23:06:26 134 139 5142 19854 12 DESCENT
2026-05-04 23:06:56 116 120 4905 19865 13 ENROUTE
2026-05-04 23:07:26 159 165 4065 19895 14 DESCENT
2026-05-04 23:07:56 174 182 4793 19997 13 CLIMB
2026-05-04 23:08:26 149 155 4950 20040 13 ENROUTE
2026-05-04 23:08:56 145 145 4785 20091 13 DESCENT
2026-05-04 23:09:26 146 143 4297 20129 14 DESCENT
2026-05-04 23:09:56 153 151 3464 20142 15 DESCENT
2026-05-04 23:10:26 156 156 2622 20154 15 DESCENT
2026-05-04 23:10:56 151 149 1982 20165 16 APPROACH
2026-05-04 23:11:26 145 142 1446 20180 16 APPROACH
2026-05-04 23:11:56 147 143 1070 20223 17 ON FINAL
2026-05-04 23:12:26 153 151 413 20253 16 ON FINAL
2026-05-04 23:12:56 138 137 94 20304 16 ON FINAL
2026-05-04 23:13:26 3 0 83 20327 16 TAXI TO APRON
2026-05-04 23:13:56 3 0 83 20346 16 TAXI TO APRON
2026-05-04 23:14:26 3 0 83 20358 16 TAXI TO APRON
2026-05-04 23:14:56 12 9 83 20382 16 TAXI TO APRON
2026-05-04 23:15:26 22 19 84 20404 16 TAXI TO APRON
2026-05-04 23:15:56 17 16 84 20417 16 TAXI TO APRON
2026-05-04 23:16:26 19 19 80 20433 16 TAXI TO APRON
2026-05-04 23:16:56 15 12 79 20477 16 TAXI TO APRON
2026-05-04 23:17:26 13 15 79 20524 16 TAXI TO APRON
2026-05-04 23:17:56 1 5 79 20568 16 TAXI TO APRON
2026-05-04 23:18:26 0 0 79 20608 16 TAXI TO APRON
2026-05-04 23:18:56 0 0 79 20637 16 TAXI TO APRON
2026-05-04 23:19:26 0 0 79 20667 16 TAXI TO APRON
2026-05-04 23:19:56 0 0 79 20698 16 TAXI TO APRON
2026-05-04 23:20:26 0 0 79 20726 16 TAXI TO APRON
2026-05-04 23:20:56 0 0 79 20756 16 TAXI TO APRON
  • Join our VA!

    It has been 11 years of great learning, friendships, and stories.

  • Sign up now!